Time;durP1;ratioP1;P1;durP2;ratioP2;P2;SDS_P1;SDS_P2;PMS_P1;PMS_P2;Temp;Humidity;BMP_temperature;BMP_pressure;BME280_temperature;BME280_humidity;BME280_pressure;Samples;Min_cycle;Max_cycle;Signal;HPM_P1;HPM_P2
2023/06/05 00:01:53;;;;;;;1.30;1.20;;;17.60;40.90;;;;;;946784;148;27342;-76
2023/06/05 00:04:20;;;;;;;1.12;1.02;;;17.50;41.20;;;;;;946926;149;27263;-76
2023/06/05 00:06:46;;;;;;;1.15;1.05;;;17.40;41.50;;;;;;964808;146;27343;-76
2023/06/05 00:09:13;;;;;;;1.67;1.30;;;17.30;41.70;;;;;;968243;145;27440;-76
2023/06/05 00:11:39;;;;;;;1.83;1.00;;;17.20;41.80;;;;;;968846;145;27292;-76
2023/06/05 00:14:08;;;;;;;1.73;1.63;;;17.00;42.10;;;;;;968608;145;27394;-76
2023/06/05 00:16:32;;;;;;;1.37;1.20;;;16.90;42.10;;;;;;968576;145;27338;-76
2023/06/05 00:18:59;;;;;;;1.47;1.27;;;16.80;42.30;;;;;;968318;145;27746;-76
2023/06/05 00:21:25;;;;;;;1.60;1.10;;;16.70;42.50;;;;;;968089;145;27284;-76
2023/06/05 00:23:52;;;;;;;1.40;1.33;;;16.60;42.70;;;;;;968178;145;27240;-76
2023/06/05 00:26:19;;;;;;;1.33;1.23;;;16.50;42.70;;;;;;969234;145;27393;-76
2023/06/05 00:28:45;;;;;;;1.40;1.27;;;16.40;43.00;;;;;;968308;145;27396;-76
2023/06/05 00:31:12;;;;;;;1.60;1.50;;;16.30;43.20;;;;;;967429;145;27433;-76
2023/06/05 00:33:38;;;;;;;4.17;1.30;;;16.20;43.30;;;;;;967734;145;27353;-76
2023/06/05 00:36:05;;;;;;;1.47;1.27;;;16.20;43.70;;;;;;967821;145;27396;-76
2023/06/05 00:38:32;;;;;;;1.70;1.30;;;16.10;43.50;;;;;;967849;145;27294;-76
2023/06/05 00:40:58;;;;;;;1.57;1.47;;;16.10;43.70;;;;;;968899;145;27773;-76
2023/06/05 00:43:25;;;;;;;5.30;2.40;;;16.10;44.50;;;;;;968540;145;27267;-76
2023/06/05 00:45:51;;;;;;;1.50;1.17;;;16.00;44.00;;;;;;967546;145;27415;-76
2023/06/05 00:48:18;;;;;;;2.97;1.20;;;16.00;44.00;;;;;;967768;145;27259;-76
2023/06/05 00:50:45;;;;;;;1.50;1.33;;;16.00;44.10;;;;;;968409;145;27424;-75
2023/06/05 00:53:11;;;;;;;2.03;1.17;;;16.00;44.10;;;;;;968753;145;27395;-76
2023/06/05 00:55:38;;;;;;;2.03;1.27;;;16.00;44.10;;;;;;968441;145;27295;-76
2023/06/05 00:58:04;;;;;;;2.00;1.30;;;15.90;44.20;;;;;;968528;145;27353;-76
2023/06/05 01:00:31;;;;;;;1.40;1.30;;;16.00;44.30;;;;;;968724;145;27263;-76
2023/06/05 01:02:58;;;;;;;1.60;1.50;;;15.90;44.20;;;;;;968658;145;27407;-76
2023/06/05 01:05:24;;;;;;;2.47;1.50;;;15.90;44.10;;;;;;968520;145;27316;-76
2023/06/05 01:07:51;;;;;;;3.13;1.30;;;15.90;44.20;;;;;;963504;145;27319;-76
2023/06/05 01:10:17;;;;;;;1.63;1.53;;;15.90;44.10;;;;;;947958;147;27269;-76
2023/06/05 01:12:47;;;;;;;2.02;1.10;;;15.90;44.10;;;;;;942957;149;27490;-76
2023/06/05 01:15:13;;;;;;;1.73;1.10;;;15.90;44.30;;;;;;942158;149;27476;-76
2023/06/05 01:17:40;;;;;;;2.80;1.47;;;15.90;44.00;;;;;;942630;149;27415;-76
2023/06/05 01:20:09;;;;;;;1.50;1.20;;;15.90;44.00;;;;;;943104;149;27361;-76
2023/06/05 01:22:37;;;;;;;1.33;1.23;;;15.90;44.00;;;;;;942877;149;27385;-76
2023/06/05 01:25:02;;;;;;;1.33;1.23;;;16.00;44.00;;;;;;942845;149;27451;-76
2023/06/05 01:27:48;;;;;;;0.97;0.97;;;16.00;44.10;;;;;;948463;147;27730;-76
2023/06/05 01:30:35;;;;;;;1.98;1.50;;;16.00;44.00;;;;;;942763;149;27334;-76
2023/06/05 01:33:05;;;;;;;1.37;1.27;;;16.00;43.90;;;;;;942225;149;27472;-76
2023/06/05 01:35:29;;;;;;;1.43;1.10;;;16.00;43.80;;;;;;942289;149;27435;-75
2023/06/05 01:37:55;;;;;;;2.70;1.45;;;16.00;44.00;;;;;;937267;149;27452;-75
2023/06/05 01:40:21;;;;;;;1.10;1.10;;;16.00;44.00;;;;;;935124;149;27477;-76
2023/06/05 01:42:48;;;;;;;1.20;1.10;;;16.00;44.00;;;;;;942751;148;27370;-76
2023/06/05 01:45:15;;;;;;;1.70;1.60;;;16.00;44.10;;;;;;942787;148;27293;-76
2023/06/05 01:47:41;;;;;;;1.23;1.10;;;16.00;44.20;;;;;;931111;150;27486;-76
2023/06/05 01:50:08;;;;;;;1.72;1.40;;;16.00;44.20;;;;;;928474;149;27348;-76
2023/06/05 01:52:34;;;;;;;0.90;0.90;;;16.00;43.60;;;;;;926498;149;27335;-76
2023/06/05 01:55:04;;;;;;;1.60;1.50;;;15.90;44.30;;;;;;951139;147;27291;-76
2023/06/05 01:57:33;;;;;;;1.53;1.10;;;15.90;44.40;;;;;;951093;147;27316;-75
2023/06/05 01:59:57;;;;;;;1.27;1.17;;;15.90;44.60;;;;;;934567;150;27358;-76
2023/06/05 02:02:24;;;;;;;2.30;1.23;;;15.80;44.50;;;;;;925458;149;27381;-76
2023/06/05 02:04:53;;;;;;;1.83;1.50;;;15.80;44.60;;;;;;934408;150;27279;-76
2023/06/05 02:07:17;;;;;;;5.67;1.70;;;15.70;44.70;;;;;;926447;150;27313;-76
2023/06/05 02:09:43;;;;;;;2.30;1.50;;;15.70;44.90;;;;;;951005;147;27373;-76
2023/06/05 02:12:13;;;;;;;1.23;1.13;;;15.60;45.00;;;;;;950782;147;27342;-76
2023/06/05 02:14:37;;;;;;;1.40;1.30;;;15.60;45.20;;;;;;926848;150;27299;-74
2023/06/05 02:17:06;;;;;;;1.53;1.20;;;15.50;45.20;;;;;;942793;149;27330;-74
2023/06/05 02:19:32;;;;;;;1.27;1.17;;;15.40;45.30;;;;;;943295;149;27461;-74
2023/06/05 02:21:59;;;;;;;2.03;1.30;;;15.40;45.50;;;;;;942949;149;27357;-74
2023/06/05 02:24:26;;;;;;;0.80;0.80;;;15.30;45.60;;;;;;942982;149;27326;-74
2023/06/05 02:26:52;;;;;;;1.40;1.30;;;15.30;45.70;;;;;;943407;149;27346;-74
2023/06/05 02:29:19;;;;;;;2.50;1.50;;;15.20;45.90;;;;;;942735;149;27270;-74
2023/06/05 02:31:45;;;;;;;1.60;1.50;;;15.10;46.00;;;;;;942854;149;27466;-74
2023/06/05 02:34:12;;;;;;;1.30;1.20;;;15.10;46.10;;;;;;943197;149;27373;-74
2023/06/05 02:36:39;;;;;;;1.30;1.20;;;15.00;46.30;;;;;;943270;149;27302;-74
2023/06/05 02:39:05;;;;;;;1.30;1.20;;;14.90;46.30;;;;;;943504;148;27412;-73
2023/06/05 02:41:32;;;;;;;5.10;1.70;;;14.90;46.50;;;;;;942737;149;27426;-74
2023/06/05 02:43:59;;;;;;;1.70;1.60;;;14.90;46.60;;;;;;950747;147;27768;-74
2023/06/05 02:46:25;;;;;;;1.10;1.03;;;14.80;46.80;;;;;;951199;147;27299;-74
2023/06/05 02:48:51;;;;;;;1.57;1.47;;;14.70;47.20;;;;;;951193;147;27223;-74
2023/06/05 02:51:18;;;;;;;1.87;1.30;;;14.70;47.10;;;;;;938081;149;27438;-73
2023/06/05 02:53:45;;;;;;;1.40;1.30;;;14.60;47.10;;;;;;927149;150;27362;-74
2023/06/05 02:56:13;;;;;;;1.67;1.23;;;14.60;47.30;;;;;;924867;150;27456;-74
2023/06/05 02:58:39;;;;;;;1.40;1.30;;;14.60;47.50;;;;;;928004;151;27307;-74
2023/06/05 03:01:08;;;;;;;1.47;1.17;;;14.50;47.60;;;;;;931446;149;27426;-74
2023/06/05 03:03:31;;;;;;;1.30;1.20;;;14.40;47.70;;;;;;937071;149;27380;-73
2023/06/05 03:06:03;;;;;;;1.80;1.30;;;14.40;47.80;;;;;;935116;150;27368;-73
2023/06/05 03:08:26;;;;;;;1.20;1.10;;;14.40;48.00;;;;;;935976;149;27253;-74
2023/06/05 03:10:51;;;;;;;1.37;1.20;;;14.30;48.00;;;;;;949490;146;27350;-73
2023/06/05 03:13:17;;;;;;;1.63;1.50;;;14.30;48.10;;;;;;949836;146;27460;-74
2023/06/05 03:15:46;;;;;;;2.00;1.20;;;14.20;48.30;;;;;;950038;146;27752;-74
2023/06/05 03:18:11;;;;;;;3.80;1.33;;;14.20;48.30;;;;;;936949;149;27618;-73
2023/06/05 03:20:38;;;;;;;1.73;1.47;;;14.10;48.40;;;;;;949632;146;27430;-74
2023/06/05 03:23:04;;;;;;;1.53;1.43;;;14.10;48.40;;;;;;933567;149;27319;-73
2023/06/05 03:25:30;;;;;;;1.63;1.53;;;14.10;48.50;;;;;;950184;146;27456;-74
2023/06/05 03:27:57;;;;;;;3.23;1.43;;;14.10;48.50;;;;;;949730;146;27689;-73
2023/06/05 03:30:23;;;;;;;2.50;1.20;;;14.10;48.60;;;;;;933558;149;27356;-73
2023/06/05 03:32:50;;;;;;;1.23;1.10;;;14.10;48.70;;;;;;949950;146;27247;-74
2023/06/05 03:35:17;;;;;;;1.80;1.13;;;14.10;48.90;;;;;;933665;149;27351;-74
2023/06/05 03:37:43;;;;;;;2.63;1.53;;;14.10;48.80;;;;;;950027;146;27431;-73
2023/06/05 03:40:10;;;;;;;2.70;1.87;;;14.10;48.90;;;;;;933302;149;27357;-74
2023/06/05 03:42:37;;;;;;;1.63;1.40;;;14.10;49.00;;;;;;950390;146;27400;-74
2023/06/05 03:45:03;;;;;;;1.80;1.70;;;14.10;49.00;;;;;;926182;149;27345;-74
2023/06/05 03:47:30;;;;;;;2.80;1.33;;;14.10;49.20;;;;;;922974;149;27370;-74
2023/06/05 03:49:56;;;;;;;1.50;1.40;;;14.10;49.20;;;;;;950068;146;27437;-74
2023/06/05 03:52:24;;;;;;;1.80;1.30;;;14.20;49.30;;;;;;949488;146;27353;-74
2023/06/05 03:54:53;;;;;;;1.80;1.60;;;14.20;49.40;;;;;;933218;150;27316;-74
2023/06/05 03:57:16;;;;;;;2.63;1.33;;;14.20;49.40;;;;;;933829;149;27331;-73
2023/06/05 03:59:43;;;;;;;1.47;1.33;;;14.20;49.50;;;;;;935897;149;27299;-74
2023/06/05 04:02:09;;;;;;;1.63;1.30;;;14.20;49.50;;;;;;950284;146;27346;-74
2023/06/05 04:04:36;;;;;;;3.97;1.90;;;14.30;49.60;;;;;;950366;146;27315;-74
2023/06/05 04:07:03;;;;;;;1.30;1.20;;;14.30;49.60;;;;;;949501;146;27330;-76
2023/06/05 04:09:29;;;;;;;1.30;1.20;;;14.40;49.70;;;;;;950163;146;27359;-76
2023/06/05 04:11:56;;;;;;;1.60;1.50;;;14.40;49.70;;;;;;951527;147;27357;-76
2023/06/05 04:14:22;;;;;;;1.33;1.23;;;14.40;49.80;;;;;;951010;147;27355;-75
2023/06/05 04:16:49;;;;;;;1.97;1.10;;;14.40;49.90;;;;;;927185;150;27322;-76
2023/06/05 04:19:15;;;;;;;1.90;1.47;;;14.50;49.90;;;;;;943099;149;27403;-76
2023/06/05 04:21:42;;;;;;;2.43;1.60;;;14.50;49.80;;;;;;942802;149;27298;-73
2023/06/05 04:24:10;;;;;;;1.57;1.47;;;14.60;49.90;;;;;;943136;148;27439;-73
2023/06/05 04:26:36;;;;;;;1.17;1.10;;;14.60;49.80;;;;;;942659;149;27380;-73
2023/06/05 04:29:02;;;;;;;1.40;1.30;;;14.70;49.80;;;;;;941829;149;27322;-73
2023/06/05 04:31:28;;;;;;;2.17;1.20;;;14.80;49.90;;;;;;942646;148;27337;-75
2023/06/05 04:33:55;;;;;;;1.73;1.30;;;14.80;49.90;;;;;;943029;148;27349;-76
2023/06/05 04:36:22;;;;;;;1.43;1.33;;;14.90;49.90;;;;;;943296;149;27487;-73
2023/06/05 04:38:48;;;;;;;2.87;1.83;;;15.00;50.00;;;;;;942623;149;27365;-73
2023/06/05 04:41:15;;;;;;;1.63;1.40;;;15.10;49.90;;;;;;942909;149;27313;-73
2023/06/05 04:43:42;;;;;;;1.60;1.50;;;15.20;49.30;;;;;;943393;149;27427;-73
2023/06/05 04:46:08;;;;;;;1.70;1.33;;;15.30;49.80;;;;;;943444;148;27441;-73
2023/06/05 04:48:35;;;;;;;1.37;1.27;;;15.40;49.80;;;;;;951082;147;27327;-73
2023/06/05 04:51:01;;;;;;;1.30;1.20;;;15.50;49.70;;;;;;951281;147;27310;-73
2023/06/05 04:53:34;;;;;;;1.23;1.00;;;15.60;49.70;;;;;;924978;150;27345;-73
2023/06/05 04:56:01;;;;;;;1.77;1.57;;;15.80;49.80;;;;;;927584;149;27459;-73
2023/06/05 04:58:27;;;;;;;1.82;1.50;;;16.00;50.10;;;;;;926372;149;27363;-73
2023/06/05 05:00:53;;;;;;;1.95;1.22;;;16.40;50.70;;;;;;926756;149;27346;-73
2023/06/05 05:03:20;;;;;;;1.40;1.30;;;16.90;51.20;;;;;;951726;147;27869;-73
2023/06/05 05:05:47;;;;;;;1.22;1.12;;;17.50;51.50;;;;;;951857;147;27359;-76
2023/06/05 05:08:13;;;;;;;1.92;1.20;;;18.20;51.30;;;;;;951327;147;27330;-73
2023/06/05 05:10:40;;;;;;;1.27;1.17;;;18.90;51.20;;;;;;927128;150;27513;-73
2023/06/05 05:13:07;;;;;;;1.12;1.02;;;19.80;50.70;;;;;;950261;147;27286;-74
2023/06/05 05:15:33;;;;;;;1.20;1.10;;;20.60;50.00;;;;;;937618;149;27235;-73
2023/06/05 05:18:03;;;;;;;1.37;1.00;;;21.50;49.00;;;;;;927450;150;27269;-73
2023/06/05 05:20:26;;;;;;;2.00;1.05;;;22.30;48.00;;;;;;942709;149;27390;-74
2023/06/05 05:22:53;;;;;;;1.67;1.57;;;23.00;47.10;;;;;;942805;149;27299;-74
2023/06/05 05:25:19;;;;;;;1.92;1.15;;;23.80;46.50;;;;;;942448;148;27400;-74
2023/06/05 05:27:46;;;;;;;1.47;1.37;;;24.60;45.50;;;;;;943189;148;27857;-74
2023/06/05 05:30:13;;;;;;;1.72;1.10;;;25.30;45.30;;;;;;943073;149;27459;-74
2023/06/05 05:32:40;;;;;;;3.33;1.62;;;26.10;44.10;;;;;;942395;149;27462;-75
2023/06/05 05:35:07;;;;;;;4.35;1.82;;;26.90;43.30;;;;;;942356;149;27452;-74
2023/06/05 05:37:32;;;;;;;2.35;1.37;;;27.60;42.40;;;;;;942864;149;27307;-74
2023/06/05 05:39:59;;;;;;;1.30;1.20;;;28.40;41.60;;;;;;943413;149;27323;-74
2023/06/05 05:42:26;;;;;;;1.65;1.32;;;29.00;40.60;;;;;;942987;148;27482;-74
2023/06/05 05:44:52;;;;;;;6.30;1.80;;;29.60;39.60;;;;;;943469;149;27455;-74
2023/06/05 05:47:19;;;;;;;3.25;2.20;;;30.20;38.90;;;;;;942637;148;27432;-74
2023/06/05 05:49:45;;;;;;;2.75;1.52;;;30.60;38.10;;;;;;943397;149;27367;-74
2023/06/05 05:52:12;;;;;;;1.22;1.12;;;31.10;37.50;;;;;;942892;148;27404;-74
2023/06/05 05:54:39;;;;;;;1.30;1.17;;;31.50;37.10;;;;;;943206;149;27727;-74
2023/06/05 05:57:06;;;;;;;1.30;1.20;;;32.00;36.50;;;;;;942754;149;27432;-74
2023/06/05 05:59:32;;;;;;;1.07;0.93;;;32.40;36.00;;;;;;943123;149;27319;-74
2023/06/05 06:02:00;;;;;;;1.02;0.90;;;32.90;35.10;;;;;;943265;149;27400;-74
2023/06/05 06:04:26;;;;;;;1.40;1.22;;;33.20;34.30;;;;;;942865;149;27442;-74
2023/06/05 06:06:52;;;;;;;1.60;1.30;;;33.40;33.70;;;;;;942789;148;27370;-74
2023/06/05 06:09:18;;;;;;;1.25;1.02;;;33.60;33.50;;;;;;940164;149;26276;-74
2023/06/05 06:11:45;;;;;;;1.00;1.00;;;33.90;33.50;;;;;;943448;149;27327;-74
2023/06/05 06:14:12;;;;;;;1.45;1.07;;;34.20;33.30;;;;;;945444;149;27367;-74
2023/06/05 06:16:38;;;;;;;1.42;1.10;;;34.60;32.90;;;;;;945067;151;27365;-75
2023/06/05 06:19:04;;;;;;;3.50;1.40;;;35.00;32.30;;;;;;947196;151;26268;-74
2023/06/05 06:21:31;;;;;;;5.95;1.15;;;35.30;31.90;;;;;;946575;151;26204;-74
2023/06/05 06:23:58;;;;;;;1.20;1.10;;;35.70;31.50;;;;;;947814;151;26245;-74
2023/06/05 06:26:26;;;;;;;1.05;1.05;;;36.00;31.20;;;;;;947234;151;26318;-73
2023/06/05 06:28:51;;;;;;;2.92;1.20;;;36.30;30.70;;;;;;947263;151;26365;-74
2023/06/05 06:31:17;;;;;;;1.30;1.00;;;36.60;30.30;;;;;;947115;150;26221;-74
2023/06/05 06:33:44;;;;;;;2.67;0.80;;;36.80;30.10;;;;;;946722;151;26217;-74
2023/06/05 06:36:12;;;;;;;1.72;1.37;;;37.10;29.90;;;;;;947830;148;26198;-74
2023/06/05 06:38:37;;;;;;;2.58;1.27;;;37.30;29.60;;;;;;947430;151;26297;-74
2023/06/05 06:41:04;;;;;;;0.98;0.95;;;37.60;29.40;;;;;;947432;151;26394;-73
2023/06/05 06:43:30;;;;;;;3.42;1.60;;;37.80;29.20;;;;;;956154;147;26289;-74
2023/06/05 06:45:57;;;;;;;1.22;1.12;;;38.00;28.90;;;;;;961990;147;26281;-74
2023/06/05 06:48:24;;;;;;;2.37;1.30;;;38.40;28.80;;;;;;961696;147;26206;-74
2023/06/05 06:50:50;;;;;;;4.30;1.45;;;38.60;28.50;;;;;;961917;146;27333;-74
2023/06/05 06:53:17;;;;;;;1.20;1.10;;;38.90;28.20;;;;;;962338;147;26211;-74
2023/06/05 06:55:43;;;;;;;2.10;1.25;;;39.10;27.90;;;;;;961393;147;26180;-74
2023/06/05 06:58:10;;;;;;;2.17;1.20;;;39.40;27.70;;;;;;961506;147;26265;-74
2023/06/05 07:00:36;;;;;;;1.15;1.05;;;39.60;27.50;;;;;;962130;149;26271;-74
2023/06/05 07:03:03;;;;;;;1.27;1.05;;;39.90;27.50;;;;;;937891;149;26265;-74
2023/06/05 07:05:30;;;;;;;1.25;1.15;;;40.20;27.30;;;;;;962123;147;26284;-74
2023/06/05 07:08:00;;;;;;;1.40;1.30;;;40.50;27.10;;;;;;961990;147;26176;-74
2023/06/05 07:10:23;;;;;;;1.30;1.10;;;40.80;26.70;;;;;;960834;147;27411;-73
2023/06/05 07:12:50;;;;;;;4.00;1.40;;;41.00;26.50;;;;;;930908;150;26302;-74
2023/06/05 07:15:16;;;;;;;3.10;1.12;;;41.20;26.30;;;;;;943374;149;26276;-74
2023/06/05 07:17:43;;;;;;;1.10;1.00;;;41.50;26.30;;;;;;942905;149;26312;-73
2023/06/05 07:20:09;;;;;;;1.20;1.00;;;41.80;26.10;;;;;;942365;148;26265;-74
2023/06/05 07:22:36;;;;;;;0.93;0.93;;;42.00;25.70;;;;;;950655;147;26283;-74
2023/06/05 07:25:03;;;;;;;2.37;1.12;;;42.30;25.70;;;;;;926798;150;26359;-73
2023/06/05 07:27:29;;;;;;;1.20;1.10;;;42.60;25.60;;;;;;951147;147;26210;-74
2023/06/05 07:29:56;;;;;;;1.10;1.00;;;42.80;25.30;;;;;;936289;149;26224;-73
2023/06/05 07:32:22;;;;;;;10.58;1.80;;;43.00;25.00;;;;;;926126;151;26372;-73
2023/06/05 07:34:49;;;;;;;1.00;0.85;;;43.20;25.00;;;;;;962490;146;26323;-73
2023/06/05 07:37:15;;;;;;;0.95;0.90;;;43.40;24.70;;;;;;962409;146;26222;-75
2023/06/05 07:39:42;;;;;;;1.57;1.00;;;43.50;24.60;;;;;;961588;146;26290;-75
2023/06/05 07:42:08;;;;;;;2.83;1.27;;;43.70;24.40;;;;;;962602;146;26299;-76
2023/06/05 07:44:35;;;;;;;1.50;1.40;;;43.80;24.20;;;;;;961783;146;26236;-76
2023/06/05 07:47:02;;;;;;;1.20;1.07;;;44.00;24.10;;;;;;962444;146;26253;-76
2023/06/05 07:49:28;;;;;;;0.80;0.80;;;44.10;23.90;;;;;;962028;146;26268;-76
2023/06/05 07:51:55;;;;;;;3.58;2.17;;;44.30;23.90;;;;;;961477;146;26280;-76
2023/06/05 07:54:22;;;;;;;2.20;1.20;;;44.50;24.20;;;;;;962850;146;26554;-76
2023/06/05 07:56:51;;;;;;;1.25;1.20;;;44.70;23.60;;;;;;962346;146;26237;-76
2023/06/05 07:59:22;;;;;;;1.32;1.22;;;44.90;23.30;;;;;;962317;146;26241;-76
2023/06/05 08:01:45;;;;;;;14.25;2.27;;;45.10;23.30;;;;;;961689;146;26303;-76
2023/06/05 08:04:11;;;;;;;1.20;1.10;;;45.30;23.20;;;;;;962650;146;26699;-76
2023/06/05 08:06:41;;;;;;;1.20;1.10;;;45.50;23.10;;;;;;962135;146;26232;-76
2023/06/05 08:09:09;;;;;;;0.88;0.88;;;45.70;23.10;;;;;;962141;146;26281;-76
2023/06/05 08:11:33;;;;;;;1.20;1.10;;;45.90;23.00;;;;;;962792;146;26224;-76
2023/06/05 08:14:01;;;;;;;2.58;1.00;;;46.10;22.80;;;;;;962789;146;26210;-76
2023/06/05 08:16:26;;;;;;;1.10;1.00;;;46.10;22.60;;;;;;962446;146;26225;-76
2023/06/05 08:18:53;;;;;;;3.90;1.22;;;46.30;22.50;;;;;;962595;146;26235;-76
2023/06/05 08:21:20;;;;;;;0.98;0.98;;;46.30;22.40;;;;;;962511;146;26205;-76
2023/06/05 08:23:46;;;;;;;1.60;1.17;;;46.40;22.20;;;;;;962457;146;26163;-76
2023/06/05 08:26:13;;;;;;;2.40;0.93;;;46.40;22.10;;;;;;962695;146;26234;-76
2023/06/05 08:28:40;;;;;;;1.37;0.90;;;46.40;22.00;;;;;;962680;146;26315;-76
2023/06/05 08:31:06;;;;;;;0.75;0.75;;;46.40;21.90;;;;;;962405;146;26303;-76
2023/06/05 08:33:32;;;;;;;1.37;1.10;;;46.40;22.00;;;;;;962122;146;26549;-76
2023/06/05 08:35:59;;;;;;;3.70;0.95;;;46.40;21.90;;;;;;961578;146;26203;-76
2023/06/05 08:38:26;;;;;;;1.92;1.17;;;46.40;21.80;;;;;;962904;146;26177;-76
2023/06/05 08:40:54;;;;;;;1.32;1.20;;;46.40;21.70;;;;;;962625;146;26234;-76
2023/06/05 08:43:20;;;;;;;1.55;1.32;;;46.30;21.60;;;;;;961925;146;26201;-76
2023/06/05 08:45:45;;;;;;;2.45;0.98;;;46.20;21.70;;;;;;962415;146;26210;-76
2023/06/05 08:48:12;;;;;;;1.15;0.88;;;46.20;21.70;;;;;;961735;146;26304;-76
2023/06/05 08:50:39;;;;;;;4.33;1.07;;;46.20;21.70;;;;;;961880;146;26233;-76
2023/06/05 08:53:05;;;;;;;1.15;1.00;;;46.20;21.80;;;;;;962132;146;26316;-76
2023/06/05 08:55:32;;;;;;;1.45;1.20;;;46.30;21.70;;;;;;962101;146;26194;-76
2023/06/05 08:57:58;;;;;;;0.85;0.85;;;46.40;21.70;;;;;;959706;146;26269;-76
2023/06/05 09:00:25;;;;;;;2.47;1.20;;;46.40;21.60;;;;;;962214;146;26299;-76
2023/06/05 09:02:51;;;;;;;0.93;0.93;;;46.60;21.50;;;;;;962577;146;26257;-76
2023/06/05 09:05:18;;;;;;;2.35;1.00;;;46.70;21.60;;;;;;961793;146;26245;-76
2023/06/05 09:07:45;;;;;;;1.15;0.98;;;46.70;21.30;;;;;;961309;146;26213;-76
2023/06/05 09:10:23;;;;;;;1.40;1.27;;;46.80;20.60;;;;;;962943;146;26232;-76
2023/06/05 09:12:53;;;;;;;1.82;0.98;;;46.90;21.20;;;;;;962633;146;26323;-76
2023/06/05 09:15:23;;;;;;;1.32;1.00;;;47.00;21.20;;;;;;964796;145;26230;-76
2023/06/05 09:17:49;;;;;;;1.95;1.02;;;47.10;21.20;;;;;;964367;145;26291;-76
2023/06/05 09:20:24;;;;;;;1.30;1.20;;;47.30;21.20;;;;;;965724;148;26188;-76
2023/06/05 09:22:51;;;;;;;1.35;1.25;;;47.40;21.00;;;;;;965758;145;26597;-76
2023/06/05 09:25:18;;;;;;;1.17;0.93;;;47.40;20.90;;;;;;965586;146;26237;-76
2023/06/05 09:27:44;;;;;;;2.25;0.90;;;47.50;21.10;;;;;;965175;145;26255;-76
2023/06/05 09:30:10;;;;;;;2.47;1.02;;;47.50;21.00;;;;;;964739;145;26209;-76
2023/06/05 09:32:39;;;;;;;1.00;1.00;;;47.50;20.60;;;;;;965791;148;26185;-76
2023/06/05 09:35:05;;;;;;;2.08;1.10;;;47.40;20.40;;;;;;965581;148;26355;-76
2023/06/05 09:37:33;;;;;;;2.42;1.27;;;47.30;20.30;;;;;;964828;148;26174;-76
2023/06/05 09:40:00;;;;;;;2.22;1.25;;;47.30;20.30;;;;;;965023;148;26247;-73
2023/06/05 09:42:32;;;;;;;1.65;1.07;;;47.20;20.30;;;;;;965754;148;26198;-73
2023/06/05 09:44:59;;;;;;;1.72;1.30;;;47.20;20.40;;;;;;966187;145;26257;-74
2023/06/05 09:47:25;;;;;;;1.02;0.90;;;47.20;20.10;;;;;;965433;145;26178;-74
2023/06/05 09:49:52;;;;;;;2.10;1.15;;;47.10;19.80;;;;;;965647;148;26508;-73
2023/06/05 09:52:18;;;;;;;1.40;1.10;;;47.00;19.80;;;;;;965498;145;26181;-73
2023/06/05 09:54:45;;;;;;;1.10;1.10;;;46.80;19.70;;;;;;965594;146;26237;-74
2023/06/05 09:57:12;;;;;;;2.83;1.00;;;46.60;19.70;;;;;;965149;148;26263;-74
2023/06/05 09:59:42;;;;;;;1.07;0.93;;;46.40;19.70;;;;;;965184;148;26255;-73
2023/06/05 10:02:08;;;;;;;1.12;1.02;;;46.10;19.60;;;;;;964426;145;26315;-73
2023/06/05 10:04:46;;;;;;;1.22;1.10;;;45.80;19.60;;;;;;965756;145;26238;-73
2023/06/05 10:07:13;;;;;;;2.98;1.05;;;45.50;19.60;;;;;;965153;148;26174;-73
2023/06/05 10:09:40;;;;;;;1.05;0.90;;;45.00;19.50;;;;;;965280;148;26241;-73
2023/06/05 10:12:07;;;;;;;1.42;1.32;;;44.50;19.50;;;;;;964258;148;26174;-73
2023/06/05 10:14:32;;;;;;;1.98;1.32;;;43.90;19.60;;;;;;963543;146;26289;-73
2023/06/05 10:16:59;;;;;;;1.40;1.30;;;43.40;19.60;;;;;;962455;146;26256;-73
2023/06/05 10:19:26;;;;;;;1.37;1.27;;;42.70;19.60;;;;;;962357;146;26206;-73
2023/06/05 10:21:52;;;;;;;1.72;1.20;;;42.10;19.90;;;;;;962542;146;26170;-73
2023/06/05 10:24:31;;;;;;;1.60;1.35;;;41.50;19.80;;;;;;962546;146;26191;-73
2023/06/05 10:27:18;;;;;;;3.50;1.37;;;41.00;20.10;;;;;;962220;146;26325;-73
2023/06/05 10:30:09;;;;;;;1.98;1.30;;;40.50;20.30;;;;;;959590;146;26245;-73
2023/06/05 10:33:09;;;;;;;1.35;1.25;;;39.90;20.60;;;;;;960255;146;26234;-73
2023/06/05 10:35:38;;;;;;;3.12;1.40;;;39.50;20.60;;;;;;960432;146;26226;-73
2023/06/05 10:38:06;;;;;;;1.55;1.30;;;39.00;20.60;;;;;;960207;146;26331;-74
2023/06/05 10:40:31;;;;;;;1.92;1.42;;;38.70;20.80;;;;;;957735;146;27304;-72
2023/06/05 10:43:29;;;;;;;2.33;1.62;;;38.20;20.70;;;;;;959654;146;27679;-73
2023/06/05 10:45:55;;;;;;;1.40;1.30;;;37.80;20.70;;;;;;960466;146;27409;-73
2023/06/05 10:48:22;;;;;;;1.98;1.30;;;37.40;20.70;;;;;;960442;146;27315;-73
2023/06/05 10:50:48;;;;;;;1.40;1.30;;;36.80;20.80;;;;;;958897;146;27402;-72
2023/06/05 10:53:43;;;;;;;1.80;1.30;;;36.40;21.10;;;;;;960936;146;27368;-72
2023/06/05 10:56:09;;;;;;;1.15;1.05;;;36.00;21.30;;;;;;958524;146;27389;-72
2023/06/05 10:58:36;;;;;;;2.58;1.50;;;35.50;21.40;;;;;;958209;146;27305;-72
2023/06/05 11:01:20;;;;;;;1.30;1.20;;;35.20;21.40;;;;;;959875;146;27408;-73
2023/06/05 11:03:59;;;;;;;2.20;1.47;;;34.90;21.60;;;;;;960569;146;27378;-73
2023/06/05 11:06:25;;;;;;;1.60;1.50;;;34.50;21.70;;;;;;960588;146;27418;-72
2023/06/05 11:09:13;;;;;;;1.27;1.17;;;34.20;21.80;;;;;;959888;146;27317;-73
2023/06/05 11:11:57;;;;;;;1.50;1.40;;;33.90;21.90;;;;;;959794;146;27286;-73
2023/06/05 11:14:24;;;;;;;2.12;1.30;;;33.60;22.10;;;;;;960576;146;27372;-72
2023/06/05 11:16:51;;;;;;;1.70;1.60;;;33.30;22.30;;;;;;963314;148;27674;-73
2023/06/05 11:19:20;;;;;;;1.70;1.60;;;33.10;22.40;;;;;;963278;145;27336;-73
2023/06/05 11:22:04;;;;;;;1.72;1.62;;;32.80;22.50;;;;;;962390;145;27301;-72
2023/06/05 11:24:32;;;;;;;1.42;1.17;;;32.70;22.90;;;;;;964316;148;27807;-72
2023/06/05 11:26:58;;;;;;;6.10;1.30;;;32.50;22.80;;;;;;964970;145;27328;-72
2023/06/05 11:29:25;;;;;;;1.62;1.52;;;32.30;23.00;;;;;;965186;145;27331;-73
2023/06/05 11:31:51;;;;;;;2.60;1.60;;;32.20;23.10;;;;;;965576;148;27389;-72
2023/06/05 11:34:17;;;;;;;1.47;1.37;;;32.00;23.10;;;;;;965596;148;27277;-73
2023/06/05 11:36:47;;;;;;;2.00;1.90;;;31.90;23.20;;;;;;965302;148;27339;-73
2023/06/05 11:39:11;;;;;;;1.60;1.50;;;31.80;23.50;;;;;;963254;148;27302;-73
2023/06/05 11:41:43;;;;;;;2.77;1.70;;;31.70;23.70;;;;;;964882;145;27289;-73
2023/06/05 11:44:09;;;;;;;1.42;1.32;;;31.50;23.60;;;;;;961623;148;27446;-73
2023/06/05 11:46:36;;;;;;;3.25;1.32;;;31.40;23.60;;;;;;963856;145;27553;-72
2023/06/05 11:49:03;;;;;;;2.25;1.57;;;31.30;23.60;;;;;;963420;145;27278;-73
2023/06/05 11:51:29;;;;;;;1.30;1.20;;;31.20;23.90;;;;;;964882;145;27324;-73
2023/06/05 11:53:57;;;;;;;2.02;1.55;;;31.20;24.20;;;;;;964702;145;27370;-72
2023/06/05 11:56:22;;;;;;;1.90;1.60;;;31.10;24.30;;;;;;964952;145;27957;-73
2023/06/05 11:58:49;;;;;;;1.40;1.30;;;31.20;24.50;;;;;;965368;145;27702;-73
2023/06/05 12:01:21;;;;;;;1.82;1.67;;;31.10;24.50;;;;;;965322;145;27303;-73
2023/06/05 12:03:45;;;;;;;1.65;1.55;;;31.10;24.60;;;;;;965051;145;27339;-73
2023/06/05 12:06:14;;;;;;;2.42;1.85;;;31.00;24.60;;;;;;965503;148;27370;-72
2023/06/05 12:08:38;;;;;;;1.67;1.57;;;31.00;24.70;;;;;;964787;146;27414;-73
2023/06/05 12:11:05;;;;;;;1.60;1.50;;;31.00;24.80;;;;;;965429;148;27269;-73
2023/06/05 12:13:50;;;;;;;1.82;1.52;;;30.90;24.80;;;;;;962463;148;27292;-73
2023/06/05 12:16:16;;;;;;;2.10;1.42;;;30.90;24.90;;;;;;965554;145;27336;-73
2023/06/05 12:18:43;;;;;;;1.62;1.52;;;30.90;25.10;;;;;;964781;147;27309;-73
2023/06/05 12:21:09;;;;;;;2.98;1.67;;;30.80;25.10;;;;;;944659;148;27334;-73
2023/06/05 12:23:36;;;;;;;2.35;1.37;;;30.80;25.20;;;;;;927419;151;27459;-73
2023/06/05 12:26:03;;;;;;;1.52;1.42;;;30.80;25.10;;;;;;947541;149;27761;-72
2023/06/05 12:28:29;;;;;;;2.40;1.50;;;30.70;25.10;;;;;;946277;149;27418;-72
2023/06/05 12:30:55;;;;;;;1.40;1.30;;;30.70;25.20;;;;;;947447;149;27307;-72
2023/06/05 12:33:24;;;;;;;1.50;1.40;;;30.80;25.20;;;;;;947340;149;27818;-73
2023/06/05 12:35:49;;;;;;;1.62;1.45;;;30.80;25.20;;;;;;947576;149;27370;-73
2023/06/05 12:38:17;;;;;;;1.65;1.55;;;30.80;25.20;;;;;;946185;151;27352;-72
2023/06/05 12:40:42;;;;;;;1.50;1.40;;;30.80;25.20;;;;;;946624;149;27263;-72
2023/06/05 12:43:18;;;;;;;5.17;2.25;;;30.80;25.20;;;;;;947409;149;27443;-72
2023/06/05 12:45:44;;;;;;;7.90;1.80;;;30.80;25.20;;;;;;947637;149;27419;-72
2023/06/05 12:48:12;;;;;;;3.05;1.70;;;30.80;25.20;;;;;;947274;149;27461;-72
2023/06/05 12:50:37;;;;;;;3.62;1.57;;;30.80;25.40;;;;;;940925;150;27321;-73